高雄國際航空站 - 塔台/地面席

METAR RCKH 092300Z VRB02KT 9999 FEW010 BKN022 BKN035 28/23 Q1010 NOSIG RMK A2983(R)=

站台狀態:Offline
最後更新:2021-05-10 07:00:01